OIIK  Qazvin  Airport

Qazvin, Iran

Add Bookmark
ICAO OIIK
Type Airport
Status Operational
Latitude
36° 14' 24" N
36.240101
Longitude
50° 2' 49" E
50.047100
Local (DST + 5) UTC (GMT + 4)
Feb 6, 2016 12:31 Feb 6, 2016 09:01
Sunrise-Sunset Local UTC
Begin Civil Twilight 06:38 03:08
Sunrise 07:05 03:35
Sunset 05:42 14:12
End Civil Twilight 06:09 14:39
VFR
VFR
MVFR
MVFR
IFR
IFR
LIFR
LIFR
Unknown
Unavailable

Current Weather

METAR Observed VFR
OIIK 060800Z 13006KT CAVOK 12/M01 Q1018 Sat, Feb 6, 2016 @ 08:00 UTC
(1 Hour, 1 Minute ago)
Visual Flight Rules
Wind Visibility Conditions
130° at 6 knots (11 kph) 10 km or more
  • No significant weather
Temperatures Readings Precipitation
Current Temp
12°C
54°F
Dewpoint
-1°C
30°F
Humidity 41%
Altimeter 30.06" Hg
Sea Level Pressure 1,018 mb
Field Elevation
1,278 m
4,193 ft
None Recorded

Additional weather within a 92.6km radius of OIIK

Map ICAO Location
OIIP 87km SE (126°)
VFR
VFR
MVFR
MVFR
IFR
IFR
LIFR
LIFR
Unknown
Unavailable
-
-

CheckWX.com is intended as a tool to help pilots better visualize weather data. It is not intended as a substitute for an official weather briefing obtained from a Flight Service Station. CheckWX.com does not meet the FAA requirements for an official pre-flight weather briefing. Therefore, it's important that pilots still call and obtain an official FSS pre-flight weather briefing.

© 2007-2016 CheckWX.com
09:01:36 UTC